sensor_id;sensor_type;location;lat;lon;timestamp;P1;durP1;ratioP1;P2;durP2;ratioP2
39454;SDS011;25155;41.890;23.446;2023-06-22T00:00:14;8.88;;;7.97;;
39454;SDS011;25155;41.890;23.446;2023-06-22T00:02:41;8.48;;;7.15;;
39454;SDS011;25155;41.890;23.446;2023-06-22T00:05:08;6.90;;;6.15;;
39454;SDS011;25155;41.890;23.446;2023-06-22T00:07:37;7.30;;;6.32;;
39454;SDS011;25155;41.890;23.446;2023-06-22T00:10:05;7.28;;;6.35;;
39454;SDS011;25155;41.890;23.446;2023-06-22T00:12:32;7.40;;;6.50;;
39454;SDS011;25155;41.890;23.446;2023-06-22T00:15:00;9.18;;;7.50;;
39454;SDS011;25155;41.890;23.446;2023-06-22T00:17:27;7.50;;;6.47;;
39454;SDS011;25155;41.890;23.446;2023-06-22T00:19:54;6.18;;;5.40;;
39454;SDS011;25155;41.890;23.446;2023-06-22T00:22:24;8.38;;;7.40;;
39454;SDS011;25155;41.890;23.446;2023-06-22T00:24:56;8.07;;;7.28;;
39454;SDS011;25155;41.890;23.446;2023-06-22T00:27:24;7.47;;;6.68;;
39454;SDS011;25155;41.890;23.446;2023-06-22T00:29:51;8.90;;;8.00;;
39454;SDS011;25155;41.890;23.446;2023-06-22T00:32:18;8.45;;;7.55;;
39454;SDS011;25155;41.890;23.446;2023-06-22T00:34:45;8.18;;;7.38;;
39454;SDS011;25155;41.890;23.446;2023-06-22T00:37:12;10.38;;;9.30;;
39454;SDS011;25155;41.890;23.446;2023-06-22T00:39:39;8.32;;;7.43;;
39454;SDS011;25155;41.890;23.446;2023-06-22T00:42:08;7.38;;;6.57;;
39454;SDS011;25155;41.890;23.446;2023-06-22T00:44:35;10.82;;;9.80;;
39454;SDS011;25155;41.890;23.446;2023-06-22T00:47:03;8.50;;;7.60;;
39454;SDS011;25155;41.890;23.446;2023-06-22T00:49:32;7.40;;;6.57;;
39454;SDS011;25155;41.890;23.446;2023-06-22T00:51:59;7.60;;;6.70;;
39454;SDS011;25155;41.890;23.446;2023-06-22T00:54:27;7.18;;;6.28;;
39454;SDS011;25155;41.890;23.446;2023-06-22T00:56:55;8.00;;;7.20;;
39454;SDS011;25155;41.890;23.446;2023-06-22T00:59:24;8.27;;;7.43;;
39454;SDS011;25155;41.890;23.446;2023-06-22T01:01:54;7.85;;;7.05;;
39454;SDS011;25155;41.890;23.446;2023-06-22T01:04:23;7.00;;;6.30;;
39454;SDS011;25155;41.890;23.446;2023-06-22T01:07:02;7.25;;;6.40;;
39454;SDS011;25155;41.890;23.446;2023-06-22T01:09:40;10.90;;;9.77;;
39454;SDS011;25155;41.890;23.446;2023-06-22T01:12:14;12.48;;;11.07;;
39454;SDS011;25155;41.890;23.446;2023-06-22T01:14:46;11.00;;;9.85;;
39454;SDS011;25155;41.890;23.446;2023-06-22T01:17:19;11.90;;;10.70;;
39454;SDS011;25155;41.890;23.446;2023-06-22T01:19:49;11.05;;;9.88;;
39454;SDS011;25155;41.890;23.446;2023-06-22T01:22:20;9.50;;;8.50;;
39454;SDS011;25155;41.890;23.446;2023-06-22T01:24:54;10.60;;;9.52;;
39454;SDS011;25155;41.890;23.446;2023-06-22T01:27:31;12.30;;;11.10;;
39454;SDS011;25155;41.890;23.446;2023-06-22T01:30:08;12.85;;;11.55;;
39454;SDS011;25155;41.890;23.446;2023-06-22T01:32:37;10.05;;;8.98;;
39454;SDS011;25155;41.890;23.446;2023-06-22T01:35:06;10.82;;;9.50;;
39454;SDS011;25155;41.890;23.446;2023-06-22T01:37:35;10.75;;;8.93;;
39454;SDS011;25155;41.890;23.446;2023-06-22T01:40:04;7.97;;;7.18;;
39454;SDS011;25155;41.890;23.446;2023-06-22T01:42:33;9.38;;;8.27;;
39454;SDS011;25155;41.890;23.446;2023-06-22T01:45:02;9.60;;;7.57;;
39454;SDS011;25155;41.890;23.446;2023-06-22T01:47:31;7.72;;;6.70;;
39454;SDS011;25155;41.890;23.446;2023-06-22T01:49:59;9.57;;;8.60;;
39454;SDS011;25155;41.890;23.446;2023-06-22T01:52:26;8.40;;;7.47;;
39454;SDS011;25155;41.890;23.446;2023-06-22T01:54:53;7.70;;;6.82;;
39454;SDS011;25155;41.890;23.446;2023-06-22T01:57:20;8.80;;;7.90;;
39454;SDS011;25155;41.890;23.446;2023-06-22T01:59:48;7.13;;;6.30;;
39454;SDS011;25155;41.890;23.446;2023-06-22T02:02:23;8.18;;;7.28;;
39454;SDS011;25155;41.890;23.446;2023-06-22T02:04:57;7.28;;;5.68;;
39454;SDS011;25155;41.890;23.446;2023-06-22T02:07:29;7.70;;;6.70;;
39454;SDS011;25155;41.890;23.446;2023-06-22T02:10:01;7.30;;;6.47;;
39454;SDS011;25155;41.890;23.446;2023-06-22T02:12:31;7.90;;;6.28;;
39454;SDS011;25155;41.890;23.446;2023-06-22T02:15:00;6.53;;;5.80;;
39454;SDS011;25155;41.890;23.446;2023-06-22T02:17:27;6.85;;;6.13;;
39454;SDS011;25155;41.890;23.446;2023-06-22T02:19:59;6.72;;;6.03;;
39454;SDS011;25155;41.890;23.446;2023-06-22T02:22:33;7.10;;;6.25;;
39454;SDS011;25155;41.890;23.446;2023-06-22T02:25:01;7.50;;;6.60;;
39454;SDS011;25155;41.890;23.446;2023-06-22T02:27:29;10.13;;;8.55;;
39454;SDS011;25155;41.890;23.446;2023-06-22T02:29:56;12.07;;;10.48;;
39454;SDS011;25155;41.890;23.446;2023-06-22T02:32:23;8.43;;;7.28;;
39454;SDS011;25155;41.890;23.446;2023-06-22T02:34:50;9.07;;;7.60;;
39454;SDS011;25155;41.890;23.446;2023-06-22T02:37:19;8.45;;;7.20;;
39454;SDS011;25155;41.890;23.446;2023-06-22T02:39:48;8.57;;;7.68;;
39454;SDS011;25155;41.890;23.446;2023-06-22T02:42:15;11.85;;;10.45;;
39454;SDS011;25155;41.890;23.446;2023-06-22T02:44:46;10.87;;;9.77;;
39454;SDS011;25155;41.890;23.446;2023-06-22T02:47:13;8.20;;;7.35;;
39454;SDS011;25155;41.890;23.446;2023-06-22T02:49:40;9.35;;;8.18;;
39454;SDS011;25155;41.890;23.446;2023-06-22T02:52:10;11.32;;;8.77;;
39454;SDS011;25155;41.890;23.446;2023-06-22T02:54:38;9.25;;;8.23;;
39454;SDS011;25155;41.890;23.446;2023-06-22T02:57:06;11.88;;;10.68;;
39454;SDS011;25155;41.890;23.446;2023-06-22T02:59:39;10.90;;;9.80;;
39454;SDS011;25155;41.890;23.446;2023-06-22T03:02:07;10.95;;;9.85;;
39454;SDS011;25155;41.890;23.446;2023-06-22T03:04:35;9.05;;;8.10;;
39454;SDS011;25155;41.890;23.446;2023-06-22T03:07:03;8.38;;;7.40;;
39454;SDS011;25155;41.890;23.446;2023-06-22T03:09:30;7.30;;;6.50;;
39454;SDS011;25155;41.890;23.446;2023-06-22T03:11:59;7.00;;;6.30;;
39454;SDS011;25155;41.890;23.446;2023-06-22T03:14:27;10.80;;;9.70;;
39454;SDS011;25155;41.890;23.446;2023-06-22T03:16:54;12.10;;;10.80;;
39454;SDS011;25155;41.890;23.446;2023-06-22T03:19:28;13.68;;;11.32;;
39454;SDS011;25155;41.890;23.446;2023-06-22T03:21:59;12.38;;;9.68;;
39454;SDS011;25155;41.890;23.446;2023-06-22T03:24:26;9.38;;;8.38;;
39454;SDS011;25155;41.890;23.446;2023-06-22T03:26:55;9.95;;;8.10;;
39454;SDS011;25155;41.890;23.446;2023-06-22T03:29:24;8.05;;;7.25;;
39454;SDS011;25155;41.890;23.446;2023-06-22T03:31:52;7.70;;;6.90;;
39454;SDS011;25155;41.890;23.446;2023-06-22T03:34:19;8.75;;;7.65;;
39454;SDS011;25155;41.890;23.446;2023-06-22T03:36:46;11.00;;;9.70;;
39454;SDS011;25155;41.890;23.446;2023-06-22T03:39:13;9.88;;;8.60;;
39454;SDS011;25155;41.890;23.446;2023-06-22T03:41:40;9.68;;;8.68;;
39454;SDS011;25155;41.890;23.446;2023-06-22T03:44:07;8.27;;;7.25;;
39454;SDS011;25155;41.890;23.446;2023-06-22T03:46:39;7.55;;;6.50;;
39454;SDS011;25155;41.890;23.446;2023-06-22T03:49:06;8.65;;;7.72;;
39454;SDS011;25155;41.890;23.446;2023-06-22T03:51:33;10.32;;;9.18;;
39454;SDS011;25155;41.890;23.446;2023-06-22T03:54:00;8.55;;;7.60;;
39454;SDS011;25155;41.890;23.446;2023-06-22T03:56:28;7.50;;;6.70;;
39454;SDS011;25155;41.890;23.446;2023-06-22T03:58:55;7.55;;;6.75;;
39454;SDS011;25155;41.890;23.446;2023-06-22T04:01:22;14.82;;;12.27;;
39454;SDS011;25155;41.890;23.446;2023-06-22T04:03:50;16.40;;;13.23;;
39454;SDS011;25155;41.890;23.446;2023-06-22T04:06:18;13.57;;;12.10;;
39454;SDS011;25155;41.890;23.446;2023-06-22T04:08:45;11.40;;;10.20;;
39454;SDS011;25155;41.890;23.446;2023-06-22T04:11:16;10.73;;;9.60;;
39454;SDS011;25155;41.890;23.446;2023-06-22T04:13:43;16.73;;;14.27;;
39454;SDS011;25155;41.890;23.446;2023-06-22T04:16:11;12.93;;;10.10;;
39454;SDS011;25155;41.890;23.446;2023-06-22T04:18:38;12.27;;;10.98;;
39454;SDS011;25155;41.890;23.446;2023-06-22T04:21:06;15.50;;;12.27;;
39454;SDS011;25155;41.890;23.446;2023-06-22T04:23:34;11.70;;;10.25;;
39454;SDS011;25155;41.890;23.446;2023-06-22T04:26:01;11.25;;;9.57;;
39454;SDS011;25155;41.890;23.446;2023-06-22T04:28:28;9.38;;;8.38;;
39454;SDS011;25155;41.890;23.446;2023-06-22T04:31:00;9.65;;;8.55;;
39454;SDS011;25155;41.890;23.446;2023-06-22T04:33:27;11.60;;;10.40;;
39454;SDS011;25155;41.890;23.446;2023-06-22T04:35:55;10.05;;;9.05;;
39454;SDS011;25155;41.890;23.446;2023-06-22T04:38:25;10.40;;;9.30;;
39454;SDS011;25155;41.890;23.446;2023-06-22T04:40:52;11.27;;;10.15;;
39454;SDS011;25155;41.890;23.446;2023-06-22T04:43:19;11.27;;;10.10;;
39454;SDS011;25155;41.890;23.446;2023-06-22T04:45:46;11.10;;;10.00;;
39454;SDS011;25155;41.890;23.446;2023-06-22T04:48:17;14.25;;;12.52;;
39454;SDS011;25155;41.890;23.446;2023-06-22T04:50:45;15.50;;;13.90;;
39454;SDS011;25155;41.890;23.446;2023-06-22T04:53:12;14.02;;;12.48;;
39454;SDS011;25155;41.890;23.446;2023-06-22T04:55:40;17.00;;;13.23;;
39454;SDS011;25155;41.890;23.446;2023-06-22T04:58:11;13.27;;;11.88;;
39454;SDS011;25155;41.890;23.446;2023-06-22T05:00:38;12.18;;;10.82;;
39454;SDS011;25155;41.890;23.446;2023-06-22T05:03:05;13.25;;;11.13;;
39454;SDS011;25155;41.890;23.446;2023-06-22T05:05:36;11.73;;;10.53;;
39454;SDS011;25155;41.890;23.446;2023-06-22T05:08:04;12.88;;;11.20;;
39454;SDS011;25155;41.890;23.446;2023-06-22T05:10:32;12.32;;;11.13;;
39454;SDS011;25155;41.890;23.446;2023-06-22T05:13:00;12.30;;;11.00;;
39454;SDS011;25155;41.890;23.446;2023-06-22T05:15:28;10.57;;;9.48;;
39454;SDS011;25155;41.890;23.446;2023-06-22T05:17:58;10.60;;;9.47;;
39454;SDS011;25155;41.890;23.446;2023-06-22T05:20:29;11.40;;;10.27;;
39454;SDS011;25155;41.890;23.446;2023-06-22T05:22:56;10.95;;;9.85;;
39454;SDS011;25155;41.890;23.446;2023-06-22T05:25:24;11.60;;;10.10;;
39454;SDS011;25155;41.890;23.446;2023-06-22T05:27:52;14.52;;;12.52;;
39454;SDS011;25155;41.890;23.446;2023-06-22T05:30:20;13.63;;;12.23;;
39454;SDS011;25155;41.890;23.446;2023-06-22T05:32:47;14.63;;;13.13;;
39454;SDS011;25155;41.890;23.446;2023-06-22T05:35:14;13.75;;;12.35;;
39454;SDS011;25155;41.890;23.446;2023-06-22T05:37:42;12.48;;;11.18;;
39454;SDS011;25155;41.890;23.446;2023-06-22T05:40:10;14.43;;;12.90;;
39454;SDS011;25155;41.890;23.446;2023-06-22T05:42:38;11.55;;;9.90;;
39454;SDS011;25155;41.890;23.446;2023-06-22T05:45:05;14.13;;;12.68;;
39454;SDS011;25155;41.890;23.446;2023-06-22T05:47:34;13.07;;;11.68;;
39454;SDS011;25155;41.890;23.446;2023-06-22T05:50:02;13.88;;;12.38;;
39454;SDS011;25155;41.890;23.446;2023-06-22T05:52:33;12.82;;;10.80;;
39454;SDS011;25155;41.890;23.446;2023-06-22T05:55:02;13.02;;;11.68;;
39454;SDS011;25155;41.890;23.446;2023-06-22T05:57:29;13.23;;;11.82;;
39454;SDS011;25155;41.890;23.446;2023-06-22T05:59:57;15.80;;;13.40;;
39454;SDS011;25155;41.890;23.446;2023-06-22T06:02:24;13.60;;;12.18;;
39454;SDS011;25155;41.890;23.446;2023-06-22T06:04:52;12.80;;;11.50;;
39454;SDS011;25155;41.890;23.446;2023-06-22T06:07:20;14.38;;;12.77;;
39454;SDS011;25155;41.890;23.446;2023-06-22T06:09:47;14.40;;;12.25;;
39454;SDS011;25155;41.890;23.446;2023-06-22T06:12:14;13.98;;;12.57;;
39454;SDS011;25155;41.890;23.446;2023-06-22T06:14:41;14.48;;;13.07;;
39454;SDS011;25155;41.890;23.446;2023-06-22T06:17:08;14.40;;;12.90;;
39454;SDS011;25155;41.890;23.446;2023-06-22T06:19:35;12.85;;;11.57;;
39454;SDS011;25155;41.890;23.446;2023-06-22T06:22:04;14.75;;;13.25;;
39454;SDS011;25155;41.890;23.446;2023-06-22T06:24:32;13.75;;;12.35;;
39454;SDS011;25155;41.890;23.446;2023-06-22T06:27:00;13.63;;;11.63;;
39454;SDS011;25155;41.890;23.446;2023-06-22T06:29:30;13.10;;;11.80;;
39454;SDS011;25155;41.890;23.446;2023-06-22T06:31:57;15.95;;;13.32;;
39454;SDS011;25155;41.890;23.446;2023-06-22T06:34:24;15.00;;;13.35;;
39454;SDS011;25155;41.890;23.446;2023-06-22T06:36:51;15.00;;;13.18;;
39454;SDS011;25155;41.890;23.446;2023-06-22T06:39:19;13.65;;;12.25;;
39454;SDS011;25155;41.890;23.446;2023-06-22T06:41:47;16.92;;;13.90;;
39454;SDS011;25155;41.890;23.446;2023-06-22T06:44:14;15.68;;;12.10;;
39454;SDS011;25155;41.890;23.446;2023-06-22T06:46:41;15.60;;;13.43;;
39454;SDS011;25155;41.890;23.446;2023-06-22T06:49:08;20.08;;;13.60;;
39454;SDS011;25155;41.890;23.446;2023-06-22T06:51:35;14.20;;;12.27;;
39454;SDS011;25155;41.890;23.446;2023-06-22T06:54:02;12.02;;;10.82;;
39454;SDS011;25155;41.890;23.446;2023-06-22T06:56:31;12.50;;;11.18;;
39454;SDS011;25155;41.890;23.446;2023-06-22T06:58:58;12.98;;;11.68;;
39454;SDS011;25155;41.890;23.446;2023-06-22T07:01:25;13.00;;;11.55;;
39454;SDS011;25155;41.890;23.446;2023-06-22T07:03:52;11.77;;;10.57;;
39454;SDS011;25155;41.890;23.446;2023-06-22T07:06:20;13.88;;;11.75;;
39454;SDS011;25155;41.890;23.446;2023-06-22T07:08:47;11.82;;;10.30;;
39454;SDS011;25155;41.890;23.446;2023-06-22T07:11:14;12.15;;;10.95;;
39454;SDS011;25155;41.890;23.446;2023-06-22T07:13:43;13.65;;;9.48;;
39454;SDS011;25155;41.890;23.446;2023-06-22T07:16:10;9.32;;;8.35;;
39454;SDS011;25155;41.890;23.446;2023-06-22T07:18:39;9.18;;;7.78;;
39454;SDS011;25155;41.890;23.446;2023-06-22T07:21:06;11.70;;;9.73;;
39454;SDS011;25155;41.890;23.446;2023-06-22T07:23:33;10.90;;;9.80;;
39454;SDS011;25155;41.890;23.446;2023-06-22T07:26:00;10.98;;;9.77;;
39454;SDS011;25155;41.890;23.446;2023-06-22T07:28:27;11.27;;;9.95;;
39454;SDS011;25155;41.890;23.446;2023-06-22T07:30:58;12.05;;;9.93;;
39454;SDS011;25155;41.890;23.446;2023-06-22T07:33:25;9.60;;;8.60;;
39454;SDS011;25155;41.890;23.446;2023-06-22T07:35:53;8.38;;;7.50;;
39454;SDS011;25155;41.890;23.446;2023-06-22T07:38:20;9.23;;;8.30;;
39454;SDS011;25155;41.890;23.446;2023-06-22T07:40:47;10.70;;;9.32;;
39454;SDS011;25155;41.890;23.446;2023-06-22T07:43:18;8.68;;;7.78;;
39454;SDS011;25155;41.890;23.446;2023-06-22T07:45:48;10.80;;;8.60;;
39454;SDS011;25155;41.890;23.446;2023-06-22T07:48:19;10.13;;;8.00;;
39454;SDS011;25155;41.890;23.446;2023-06-22T07:50:47;8.73;;;7.50;;
39454;SDS011;25155;41.890;23.446;2023-06-22T07:53:15;9.57;;;8.43;;
39454;SDS011;25155;41.890;23.446;2023-06-22T07:55:42;9.50;;;8.45;;
39454;SDS011;25155;41.890;23.446;2023-06-22T07:58:09;10.73;;;8.68;;
39454;SDS011;25155;41.890;23.446;2023-06-22T08:00:36;7.47;;;6.68;;
39454;SDS011;25155;41.890;23.446;2023-06-22T08:03:03;8.15;;;7.25;;
39454;SDS011;25155;41.890;23.446;2023-06-22T08:05:32;7.80;;;6.50;;
39454;SDS011;25155;41.890;23.446;2023-06-22T08:07:59;8.02;;;6.47;;
39454;SDS011;25155;41.890;23.446;2023-06-22T08:10:26;6.32;;;5.07;;
39454;SDS011;25155;41.890;23.446;2023-06-22T08:12:54;6.55;;;5.18;;
39454;SDS011;25155;41.890;23.446;2023-06-22T08:15:21;5.35;;;4.32;;
39454;SDS011;25155;41.890;23.446;2023-06-22T08:17:48;6.90;;;4.50;;
39454;SDS011;25155;41.890;23.446;2023-06-22T08:20:15;5.68;;;4.53;;
39454;SDS011;25155;41.890;23.446;2023-06-22T08:22:44;5.70;;;4.32;;
39454;SDS011;25155;41.890;23.446;2023-06-22T08:25:11;4.78;;;3.80;;
39454;SDS011;25155;41.890;23.446;2023-06-22T08:27:39;5.80;;;4.35;;
39454;SDS011;25155;41.890;23.446;2023-06-22T08:30:07;5.07;;;3.97;;
39454;SDS011;25155;41.890;23.446;2023-06-22T08:32:36;5.70;;;4.55;;
39454;SDS011;25155;41.890;23.446;2023-06-22T08:35:03;5.15;;;4.20;;
39454;SDS011;25155;41.890;23.446;2023-06-22T08:37:31;6.82;;;5.32;;
39454;SDS011;25155;41.890;23.446;2023-06-22T08:40:02;5.50;;;4.13;;
39454;SDS011;25155;41.890;23.446;2023-06-22T08:42:31;6.95;;;5.00;;
39454;SDS011;25155;41.890;23.446;2023-06-22T08:44:58;5.95;;;4.18;;
39454;SDS011;25155;41.890;23.446;2023-06-22T08:47:26;5.47;;;4.50;;
39454;SDS011;25155;41.890;23.446;2023-06-22T08:49:54;5.80;;;4.32;;
39454;SDS011;25155;41.890;23.446;2023-06-22T08:52:21;5.05;;;4.10;;
39454;SDS011;25155;41.890;23.446;2023-06-22T08:54:49;6.47;;;4.80;;
39454;SDS011;25155;41.890;23.446;2023-06-22T08:57:18;4.53;;;3.72;;
39454;SDS011;25155;41.890;23.446;2023-06-22T08:59:45;4.57;;;3.67;;
39454;SDS011;25155;41.890;23.446;2023-06-22T09:02:13;4.95;;;3.80;;
39454;SDS011;25155;41.890;23.446;2023-06-22T09:04:40;4.25;;;3.55;;
39454;SDS011;25155;41.890;23.446;2023-06-22T09:07:07;5.88;;;4.20;;
39454;SDS011;25155;41.890;23.446;2023-06-22T09:09:34;4.72;;;3.78;;
39454;SDS011;25155;41.890;23.446;2023-06-22T09:12:01;5.07;;;4.13;;
39454;SDS011;25155;41.890;23.446;2023-06-22T09:14:30;6.63;;;4.18;;
39454;SDS011;25155;41.890;23.446;2023-06-22T09:16:58;5.10;;;3.80;;
39454;SDS011;25155;41.890;23.446;2023-06-22T09:19:25;4.75;;;3.65;;
39454;SDS011;25155;41.890;23.446;2023-06-22T09:21:52;5.35;;;3.85;;
39454;SDS011;25155;41.890;23.446;2023-06-22T09:24:19;6.13;;;4.07;;
39454;SDS011;25155;41.890;23.446;2023-06-22T09:26:46;5.00;;;4.13;;
39454;SDS011;25155;41.890;23.446;2023-06-22T09:29:13;6.50;;;3.97;;
39454;SDS011;25155;41.890;23.446;2023-06-22T09:31:42;5.10;;;3.75;;
39454;SDS011;25155;41.890;23.446;2023-06-22T09:34:09;4.72;;;3.70;;
39454;SDS011;25155;41.890;23.446;2023-06-22T09:36:37;4.65;;;3.40;;
39454;SDS011;25155;41.890;23.446;2023-06-22T09:39:05;4.20;;;3.05;;
39454;SDS011;25155;41.890;23.446;2023-06-22T09:41:32;7.57;;;4.40;;
39454;SDS011;25155;41.890;23.446;2023-06-22T09:43:59;5.13;;;4.30;;
39454;SDS011;25155;41.890;23.446;2023-06-22T09:46:26;5.35;;;4.03;;
39454;SDS011;25155;41.890;23.446;2023-06-22T09:48:55;5.15;;;4.10;;
39454;SDS011;25155;41.890;23.446;2023-06-22T09:51:22;5.30;;;4.55;;
39454;SDS011;25155;41.890;23.446;2023-06-22T09:53:50;5.93;;;4.68;;
39454;SDS011;25155;41.890;23.446;2023-06-22T09:56:17;5.05;;;4.30;;
39454;SDS011;25155;41.890;23.446;2023-06-22T09:58:45;4.88;;;4.00;;
39454;SDS011;25155;41.890;23.446;2023-06-22T10:01:15;5.35;;;4.13;;
39454;SDS011;25155;41.890;23.446;2023-06-22T10:03:43;4.53;;;3.42;;
39454;SDS011;25155;41.890;23.446;2023-06-22T10:06:11;5.00;;;4.00;;
39454;SDS011;25155;41.890;23.446;2023-06-22T10:08:38;4.93;;;3.80;;
39454;SDS011;25155;41.890;23.446;2023-06-22T10:11:06;4.22;;;3.47;;
39454;SDS011;25155;41.890;23.446;2023-06-22T10:13:33;5.85;;;4.10;;
39454;SDS011;25155;41.890;23.446;2023-06-22T10:16:00;7.43;;;4.45;;
39454;SDS011;25155;41.890;23.446;2023-06-22T10:18:27;4.82;;;3.53;;
39454;SDS011;25155;41.890;23.446;2023-06-22T10:20:56;4.65;;;3.50;;
39454;SDS011;25155;41.890;23.446;2023-06-22T10:23:24;5.88;;;3.65;;
39454;SDS011;25155;41.890;23.446;2023-06-22T10:25:51;4.40;;;3.47;;
39454;SDS011;25155;41.890;23.446;2023-06-22T10:28:18;5.22;;;4.05;;
39454;SDS011;25155;41.890;23.446;2023-06-22T10:30:46;5.60;;;4.45;;
39454;SDS011;25155;41.890;23.446;2023-06-22T10:33:13;5.13;;;4.00;;
39454;SDS011;25155;41.890;23.446;2023-06-22T10:35:40;5.05;;;3.83;;
39454;SDS011;25155;41.890;23.446;2023-06-22T10:38:07;4.70;;;3.55;;
39454;SDS011;25155;41.890;23.446;2023-06-22T10:40:35;5.50;;;4.35;;
39454;SDS011;25155;41.890;23.446;2023-06-22T10:43:04;4.85;;;4.05;;
39454;SDS011;25155;41.890;23.446;2023-06-22T10:45:31;5.22;;;4.40;;
39454;SDS011;25155;41.890;23.446;2023-06-22T10:47:58;5.60;;;4.70;;
39454;SDS011;25155;41.890;23.446;2023-06-22T10:50:26;5.38;;;4.50;;
39454;SDS011;25155;41.890;23.446;2023-06-22T10:52:53;5.20;;;3.80;;
39454;SDS011;25155;41.890;23.446;2023-06-22T10:55:20;6.43;;;4.32;;
39454;SDS011;25155;41.890;23.446;2023-06-22T10:57:49;5.00;;;4.15;;
39454;SDS011;25155;41.890;23.446;2023-06-22T11:00:17;4.90;;;3.70;;
39454;SDS011;25155;41.890;23.446;2023-06-22T11:02:44;4.55;;;3.78;;
39454;SDS011;25155;41.890;23.446;2023-06-22T11:05:11;5.20;;;4.30;;
39454;SDS011;25155;41.890;23.446;2023-06-22T11:07:41;5.47;;;4.10;;
39454;SDS011;25155;41.890;23.446;2023-06-22T11:10:09;5.50;;;4.50;;
39454;SDS011;25155;41.890;23.446;2023-06-22T11:12:36;5.10;;;4.25;;
39454;SDS011;25155;41.890;23.446;2023-06-22T11:15:05;5.00;;;3.80;;
39454;SDS011;25155;41.890;23.446;2023-06-22T11:17:33;4.63;;;3.67;;
39454;SDS011;25155;41.890;23.446;2023-06-22T11:20:00;8.07;;;4.50;;
39454;SDS011;25155;41.890;23.446;2023-06-22T11:22:30;5.43;;;4.20;;
39454;SDS011;25155;41.890;23.446;2023-06-22T11:24:59;6.15;;;4.75;;
39454;SDS011;25155;41.890;23.446;2023-06-22T11:27:26;5.72;;;4.53;;
39454;SDS011;25155;41.890;23.446;2023-06-22T11:29:53;6.20;;;4.43;;
39454;SDS011;25155;41.890;23.446;2023-06-22T11:32:22;6.25;;;5.00;;
39454;SDS011;25155;41.890;23.446;2023-06-22T11:34:49;5.60;;;4.25;;
39454;SDS011;25155;41.890;23.446;2023-06-22T11:37:16;5.70;;;5.10;;
39454;SDS011;25155;41.890;23.446;2023-06-22T11:39:43;6.45;;;4.70;;
39454;SDS011;25155;41.890;23.446;2023-06-22T11:42:10;5.63;;;5.00;;
39454;SDS011;25155;41.890;23.446;2023-06-22T11:44:38;5.78;;;4.15;;
39454;SDS011;25155;41.890;23.446;2023-06-22T11:47:05;5.80;;;5.00;;
39454;SDS011;25155;41.890;23.446;2023-06-22T11:49:34;5.25;;;4.40;;
39454;SDS011;25155;41.890;23.446;2023-06-22T11:52:01;6.28;;;5.00;;
39454;SDS011;25155;41.890;23.446;2023-06-22T11:54:28;5.75;;;4.68;;
39454;SDS011;25155;41.890;23.446;2023-06-22T11:56:55;6.20;;;5.30;;
39454;SDS011;25155;41.890;23.446;2023-06-22T11:59:22;7.95;;;5.15;;
39454;SDS011;25155;41.890;23.446;2023-06-22T12:01:49;5.85;;;5.10;;
39454;SDS011;25155;41.890;23.446;2023-06-22T12:04:16;6.07;;;5.10;;
39454;SDS011;25155;41.890;23.446;2023-06-22T12:06:45;5.43;;;4.82;;
39454;SDS011;25155;41.890;23.446;2023-06-22T12:09:13;6.18;;;5.18;;
39454;SDS011;25155;41.890;23.446;2023-06-22T12:11:40;7.22;;;5.80;;
39454;SDS011;25155;41.890;23.446;2023-06-22T12:14:07;6.50;;;5.20;;
39454;SDS011;25155;41.890;23.446;2023-06-22T12:16:34;5.72;;;5.13;;
39454;SDS011;25155;41.890;23.446;2023-06-22T12:19:01;5.88;;;4.85;;
39454;SDS011;25155;41.890;23.446;2023-06-22T12:21:29;5.78;;;5.13;;
39454;SDS011;25155;41.890;23.446;2023-06-22T12:23:57;7.13;;;5.50;;
39454;SDS011;25155;41.890;23.446;2023-06-22T12:26:24;5.72;;;5.03;;
39454;SDS011;25155;41.890;23.446;2023-06-22T12:28:52;7.22;;;6.53;;
39454;SDS011;25155;41.890;23.446;2023-06-22T12:31:19;6.78;;;5.80;;
39454;SDS011;25155;41.890;23.446;2023-06-22T12:33:46;6.47;;;5.80;;
39454;SDS011;25155;41.890;23.446;2023-06-22T12:36:13;7.28;;;6.43;;
39454;SDS011;25155;41.890;23.446;2023-06-22T12:38:41;7.05;;;6.35;;
39454;SDS011;25155;41.890;23.446;2023-06-22T12:41:10;8.23;;;5.75;;
39454;SDS011;25155;41.890;23.446;2023-06-22T12:43:37;7.25;;;6.43;;
39454;SDS011;25155;41.890;23.446;2023-06-22T12:46:04;6.68;;;5.80;;
39454;SDS011;25155;41.890;23.446;2023-06-22T12:48:31;6.63;;;5.93;;
39454;SDS011;25155;41.890;23.446;2023-06-22T12:50:58;6.78;;;6.03;;
39454;SDS011;25155;41.890;23.446;2023-06-22T12:53:26;8.35;;;6.57;;
39454;SDS011;25155;41.890;23.446;2023-06-22T12:55:53;7.75;;;6.93;;
39454;SDS011;25155;41.890;23.446;2023-06-22T12:58:22;9.48;;;7.68;;
39454;SDS011;25155;41.890;23.446;2023-06-22T13:00:49;8.50;;;7.65;;
39454;SDS011;25155;41.890;23.446;2023-06-22T13:03:16;8.75;;;7.80;;
39454;SDS011;25155;41.890;23.446;2023-06-22T13:05:43;9.13;;;8.23;;
39454;SDS011;25155;41.890;23.446;2023-06-22T13:08:11;9.13;;;7.97;;
39454;SDS011;25155;41.890;23.446;2023-06-22T13:10:39;9.30;;;8.27;;
39454;SDS011;25155;41.890;23.446;2023-06-22T13:13:06;8.52;;;7.72;;
39454;SDS011;25155;41.890;23.446;2023-06-22T13:15:34;9.32;;;8.43;;
39454;SDS011;25155;41.890;23.446;2023-06-22T13:18:01;11.05;;;9.05;;
39454;SDS011;25155;41.890;23.446;2023-06-22T13:20:29;10.88;;;9.20;;
39454;SDS011;25155;41.890;23.446;2023-06-22T13:22:56;10.25;;;8.85;;
39454;SDS011;25155;41.890;23.446;2023-06-22T13:25:23;8.98;;;8.10;;
39454;SDS011;25155;41.890;23.446;2023-06-22T13:27:51;9.27;;;8.38;;
39454;SDS011;25155;41.890;23.446;2023-06-22T13:30:20;8.20;;;7.35;;
39454;SDS011;25155;41.890;23.446;2023-06-22T13:32:49;10.60;;;8.82;;
39454;SDS011;25155;41.890;23.446;2023-06-22T13:35:16;9.32;;;8.32;;
39454;SDS011;25155;41.890;23.446;2023-06-22T13:37:43;8.23;;;7.43;;
39454;SDS011;25155;41.890;23.446;2023-06-22T13:40:10;9.63;;;8.02;;
39454;SDS011;25155;41.890;23.446;2023-06-22T13:42:37;8.43;;;6.97;;
39454;SDS011;25155;41.890;23.446;2023-06-22T13:45:06;10.30;;;8.13;;
39454;SDS011;25155;41.890;23.446;2023-06-22T13:47:34;8.52;;;7.60;;
39454;SDS011;25155;41.890;23.446;2023-06-22T13:50:03;7.05;;;6.13;;
39454;SDS011;25155;41.890;23.446;2023-06-22T13:52:31;8.68;;;7.57;;
39454;SDS011;25155;41.890;23.446;2023-06-22T13:54:58;8.40;;;7.15;;
39454;SDS011;25155;41.890;23.446;2023-06-22T13:57:25;8.70;;;7.78;;
39454;SDS011;25155;41.890;23.446;2023-06-22T13:59:52;9.50;;;7.35;;
39454;SDS011;25155;41.890;23.446;2023-06-22T14:02:19;10.07;;;8.55;;
39454;SDS011;25155;41.890;23.446;2023-06-22T14:04:46;8.68;;;7.72;;
39454;SDS011;25155;41.890;23.446;2023-06-22T14:07:15;7.70;;;6.90;;
39454;SDS011;25155;41.890;23.446;2023-06-22T14:09:42;7.78;;;6.97;;
39454;SDS011;25155;41.890;23.446;2023-06-22T14:12:10;8.77;;;7.55;;
39454;SDS011;25155;41.890;23.446;2023-06-22T14:14:37;9.25;;;6.82;;
39454;SDS011;25155;41.890;23.446;2023-06-22T14:17:04;7.75;;;6.30;;
39454;SDS011;25155;41.890;23.446;2023-06-22T14:19:32;8.73;;;6.00;;
39454;SDS011;25155;41.890;23.446;2023-06-22T14:21:59;8.95;;;7.03;;
39454;SDS011;25155;41.890;23.446;2023-06-22T14:24:27;8.57;;;6.25;;
39454;SDS011;25155;41.890;23.446;2023-06-22T14:26:55;9.32;;;5.53;;
39454;SDS011;25155;41.890;23.446;2023-06-22T14:29:22;8.57;;;5.35;;
39454;SDS011;25155;41.890;23.446;2023-06-22T14:31:49;6.43;;;4.60;;